sensor_id;sensor_type;location;lat;lon;timestamp;P1;durP1;ratioP1;P2;durP2;ratioP2
60502;SDS011;51448;51.660;5.824;2023-02-02T00:01:45;18.90;;;4.55;;
60502;SDS011;51448;51.660;5.824;2023-02-02T00:06:53;18.92;;;4.43;;
60502;SDS011;51448;51.660;5.824;2023-02-02T00:09:24;20.75;;;4.18;;
60502;SDS011;51448;51.660;5.824;2023-02-02T00:11:55;19.75;;;4.65;;
60502;SDS011;51448;51.660;5.824;2023-02-02T00:14:24;16.77;;;3.92;;
60502;SDS011;51448;51.660;5.824;2023-02-02T00:16:53;22.85;;;4.72;;
60502;SDS011;51448;51.660;5.824;2023-02-02T00:19:23;16.73;;;4.35;;
60502;SDS011;51448;51.660;5.824;2023-02-02T00:21:54;20.55;;;4.72;;
60502;SDS011;51448;51.660;5.824;2023-02-02T00:24:22;15.48;;;4.22;;
60502;SDS011;51448;51.660;5.824;2023-02-02T00:26:51;19.38;;;4.55;;
60502;SDS011;51448;51.660;5.824;2023-02-02T00:29:23;20.90;;;4.43;;
60502;SDS011;51448;51.660;5.824;2023-02-02T00:31:55;18.92;;;4.47;;
60502;SDS011;51448;51.660;5.824;2023-02-02T00:34:23;21.92;;;4.90;;
60502;SDS011;51448;51.660;5.824;2023-02-02T00:36:51;25.73;;;5.10;;
60502;SDS011;51448;51.660;5.824;2023-02-02T00:39:20;24.92;;;4.93;;
60502;SDS011;51448;51.660;5.824;2023-02-02T00:41:54;20.67;;;4.75;;
60502;SDS011;51448;51.660;5.824;2023-02-02T00:44:21;21.50;;;4.30;;
60502;SDS011;51448;51.660;5.824;2023-02-02T00:47:07;25.73;;;4.10;;
60502;SDS011;51448;51.660;5.824;2023-02-02T00:49:35;20.10;;;4.63;;
60502;SDS011;51448;51.660;5.824;2023-02-02T00:52:03;18.02;;;4.75;;
60502;SDS011;51448;51.660;5.824;2023-02-02T00:54:30;21.60;;;5.30;;
60502;SDS011;51448;51.660;5.824;2023-02-02T00:56:58;19.33;;;4.43;;
60502;SDS011;51448;51.660;5.824;2023-02-02T00:59:25;24.13;;;4.80;;
60502;SDS011;51448;51.660;5.824;2023-02-02T01:01:53;21.88;;;5.13;;
60502;SDS011;51448;51.660;5.824;2023-02-02T01:04:20;19.50;;;4.07;;
60502;SDS011;51448;51.660;5.824;2023-02-02T01:06:48;21.30;;;4.75;;
60502;SDS011;51448;51.660;5.824;2023-02-02T01:09:15;20.38;;;5.50;;
60502;SDS011;51448;51.660;5.824;2023-02-02T01:11:43;23.20;;;4.97;;
60502;SDS011;51448;51.660;5.824;2023-02-02T01:14:10;26.08;;;4.88;;
60502;SDS011;51448;51.660;5.824;2023-02-02T01:16:38;24.80;;;4.43;;
60502;SDS011;51448;51.660;5.824;2023-02-02T01:19:06;28.67;;;4.88;;
60502;SDS011;51448;51.660;5.824;2023-02-02T01:21:33;22.42;;;5.10;;
60502;SDS011;51448;51.660;5.824;2023-02-02T01:24:01;27.42;;;4.82;;
60502;SDS011;51448;51.660;5.824;2023-02-02T01:26:28;24.10;;;4.93;;
60502;SDS011;51448;51.660;5.824;2023-02-02T01:28:57;21.58;;;5.00;;
60502;SDS011;51448;51.660;5.824;2023-02-02T01:31:24;21.65;;;4.50;;
60502;SDS011;51448;51.660;5.824;2023-02-02T01:33:52;22.83;;;4.68;;
60502;SDS011;51448;51.660;5.824;2023-02-02T01:36:21;23.50;;;4.40;;
60502;SDS011;51448;51.660;5.824;2023-02-02T01:38:50;27.95;;;4.60;;
60502;SDS011;51448;51.660;5.824;2023-02-02T01:41:19;29.50;;;5.72;;
60502;SDS011;51448;51.660;5.824;2023-02-02T01:43:51;28.33;;;5.13;;
60502;SDS011;51448;51.660;5.824;2023-02-02T01:46:28;20.95;;;4.47;;
60502;SDS011;51448;51.660;5.824;2023-02-02T01:49:06;27.38;;;4.93;;
60502;SDS011;51448;51.660;5.824;2023-02-02T01:51:49;22.40;;;5.32;;
60502;SDS011;51448;51.660;5.824;2023-02-02T01:54:27;22.23;;;4.72;;
60502;SDS011;51448;51.660;5.824;2023-02-02T01:57:03;22.10;;;4.53;;
60502;SDS011;51448;51.660;5.824;2023-02-02T01:59:41;23.27;;;4.70;;
60502;SDS011;51448;51.660;5.824;2023-02-02T02:02:13;20.67;;;4.55;;
60502;SDS011;51448;51.660;5.824;2023-02-02T02:04:41;21.92;;;4.10;;
60502;SDS011;51448;51.660;5.824;2023-02-02T02:07:09;24.23;;;4.63;;
60502;SDS011;51448;51.660;5.824;2023-02-02T02:09:38;22.27;;;4.50;;
60502;SDS011;51448;51.660;5.824;2023-02-02T02:12:10;20.60;;;4.50;;
60502;SDS011;51448;51.660;5.824;2023-02-02T02:14:42;18.52;;;4.30;;
60502;SDS011;51448;51.660;5.824;2023-02-02T02:20:43;25.52;;;4.75;;
60502;SDS011;51448;51.660;5.824;2023-02-02T02:27:04;22.02;;;4.93;;
60502;SDS011;51448;51.660;5.824;2023-02-02T02:33:25;25.10;;;5.35;;
60502;SDS011;51448;51.660;5.824;2023-02-02T02:41:45;15.77;;;4.07;;
60502;SDS011;51448;51.660;5.824;2023-02-02T02:44:19;18.55;;;4.53;;
60502;SDS011;51448;51.660;5.824;2023-02-02T02:46:48;23.20;;;4.82;;
60502;SDS011;51448;51.660;5.824;2023-02-02T02:49:17;25.52;;;4.65;;
60502;SDS011;51448;51.660;5.824;2023-02-02T02:51:49;25.08;;;5.15;;
60502;SDS011;51448;51.660;5.824;2023-02-02T02:54:31;19.20;;;4.47;;
60502;SDS011;51448;51.660;5.824;2023-02-02T02:57:12;22.35;;;5.05;;
60502;SDS011;51448;51.660;5.824;2023-02-02T03:06:41;26.77;;;4.80;;
60502;SDS011;51448;51.660;5.824;2023-02-02T03:09:20;25.00;;;4.70;;
60502;SDS011;51448;51.660;5.824;2023-02-02T03:11:55;25.05;;;4.25;;
60502;SDS011;51448;51.660;5.824;2023-02-02T03:14:23;23.48;;;4.80;;
60502;SDS011;51448;51.660;5.824;2023-02-02T03:16:51;21.83;;;4.38;;
60502;SDS011;51448;51.660;5.824;2023-02-02T03:19:19;30.23;;;5.13;;
60502;SDS011;51448;51.660;5.824;2023-02-02T03:21:47;24.63;;;4.53;;
60502;SDS011;51448;51.660;5.824;2023-02-02T03:24:14;21.38;;;4.38;;
60502;SDS011;51448;51.660;5.824;2023-02-02T03:26:42;26.13;;;4.97;;
60502;SDS011;51448;51.660;5.824;2023-02-02T03:29:12;23.38;;;4.50;;
60502;SDS011;51448;51.660;5.824;2023-02-02T03:31:40;18.38;;;4.30;;
60502;SDS011;51448;51.660;5.824;2023-02-02T03:34:07;22.17;;;4.70;;
60502;SDS011;51448;51.660;5.824;2023-02-02T03:36:35;21.48;;;4.30;;
60502;SDS011;51448;51.660;5.824;2023-02-02T03:39:02;27.70;;;5.25;;
60502;SDS011;51448;51.660;5.824;2023-02-02T03:41:30;16.92;;;3.95;;
60502;SDS011;51448;51.660;5.824;2023-02-02T03:43:57;21.90;;;4.38;;
60502;SDS011;51448;51.660;5.824;2023-02-02T03:46:25;22.80;;;4.55;;
60502;SDS011;51448;51.660;5.824;2023-02-02T03:48:52;22.05;;;4.28;;
60502;SDS011;51448;51.660;5.824;2023-02-02T03:51:20;20.88;;;4.55;;
60502;SDS011;51448;51.660;5.824;2023-02-02T03:53:47;19.70;;;4.57;;
60502;SDS011;51448;51.660;5.824;2023-02-02T03:56:15;30.42;;;5.00;;
60502;SDS011;51448;51.660;5.824;2023-02-02T03:58:43;25.73;;;4.55;;
60502;SDS011;51448;51.660;5.824;2023-02-02T04:01:12;20.85;;;4.60;;
60502;SDS011;51448;51.660;5.824;2023-02-02T04:03:41;24.23;;;4.93;;
60502;SDS011;51448;51.660;5.824;2023-02-02T04:06:08;26.13;;;4.72;;
60502;SDS011;51448;51.660;5.824;2023-02-02T04:08:36;24.80;;;4.97;;
60502;SDS011;51448;51.660;5.824;2023-02-02T04:11:08;22.75;;;4.35;;
60502;SDS011;51448;51.660;5.824;2023-02-02T04:13:36;22.70;;;4.25;;
60502;SDS011;51448;51.660;5.824;2023-02-02T04:16:05;18.45;;;4.20;;
60502;SDS011;51448;51.660;5.824;2023-02-02T04:18:33;25.63;;;4.50;;
60502;SDS011;51448;51.660;5.824;2023-02-02T04:21:00;28.27;;;5.35;;
60502;SDS011;51448;51.660;5.824;2023-02-02T04:23:29;21.23;;;4.65;;
60502;SDS011;51448;51.660;5.824;2023-02-02T04:25:57;23.17;;;4.93;;
60502;SDS011;51448;51.660;5.824;2023-02-02T04:28:26;21.52;;;4.47;;
60502;SDS011;51448;51.660;5.824;2023-02-02T04:30:54;21.95;;;4.38;;
60502;SDS011;51448;51.660;5.824;2023-02-02T04:33:23;25.63;;;4.85;;
60502;SDS011;51448;51.660;5.824;2023-02-02T04:35:53;23.45;;;4.75;;
60502;SDS011;51448;51.660;5.824;2023-02-02T04:38:21;20.92;;;4.22;;
60502;SDS011;51448;51.660;5.824;2023-02-02T04:40:49;20.10;;;4.13;;
60502;SDS011;51448;51.660;5.824;2023-02-02T04:43:16;24.75;;;4.70;;
60502;SDS011;51448;51.660;5.824;2023-02-02T04:45:44;25.80;;;4.90;;
60502;SDS011;51448;51.660;5.824;2023-02-02T04:48:11;18.20;;;4.60;;
60502;SDS011;51448;51.660;5.824;2023-02-02T04:50:39;26.38;;;4.55;;
60502;SDS011;51448;51.660;5.824;2023-02-02T04:53:06;21.50;;;4.57;;
60502;SDS011;51448;51.660;5.824;2023-02-02T04:55:37;22.65;;;4.35;;
60502;SDS011;51448;51.660;5.824;2023-02-02T04:58:04;20.65;;;3.67;;
60502;SDS011;51448;51.660;5.824;2023-02-02T05:00:32;19.42;;;3.92;;
60502;SDS011;51448;51.660;5.824;2023-02-02T05:03:00;21.85;;;3.67;;
60502;SDS011;51448;51.660;5.824;2023-02-02T05:05:27;20.08;;;3.67;;
60502;SDS011;51448;51.660;5.824;2023-02-02T05:07:55;20.58;;;4.15;;
60502;SDS011;51448;51.660;5.824;2023-02-02T05:10:22;23.00;;;4.80;;
60502;SDS011;51448;51.660;5.824;2023-02-02T05:12:53;20.75;;;4.25;;
60502;SDS011;51448;51.660;5.824;2023-02-02T05:15:21;22.88;;;3.65;;
60502;SDS011;51448;51.660;5.824;2023-02-02T05:17:49;21.55;;;4.00;;
60502;SDS011;51448;51.660;5.824;2023-02-02T05:20:17;18.52;;;3.55;;
60502;SDS011;51448;51.660;5.824;2023-02-02T05:22:47;21.27;;;3.70;;
60502;SDS011;51448;51.660;5.824;2023-02-02T05:25:16;17.45;;;3.42;;
60502;SDS011;51448;51.660;5.824;2023-02-02T05:27:44;17.17;;;4.32;;
60502;SDS011;51448;51.660;5.824;2023-02-02T05:30:13;17.33;;;3.60;;
60502;SDS011;51448;51.660;5.824;2023-02-02T05:32:41;21.35;;;4.25;;
60502;SDS011;51448;51.660;5.824;2023-02-02T05:35:08;22.08;;;4.28;;
60502;SDS011;51448;51.660;5.824;2023-02-02T05:37:36;19.27;;;4.53;;
60502;SDS011;51448;51.660;5.824;2023-02-02T05:40:04;18.20;;;4.07;;
60502;SDS011;51448;51.660;5.824;2023-02-02T05:42:32;18.90;;;3.83;;
60502;SDS011;51448;51.660;5.824;2023-02-02T05:44:59;21.55;;;4.10;;
60502;SDS011;51448;51.660;5.824;2023-02-02T05:47:27;21.58;;;4.05;;
60502;SDS011;51448;51.660;5.824;2023-02-02T05:49:54;24.50;;;4.70;;
60502;SDS011;51448;51.660;5.824;2023-02-02T05:52:22;22.23;;;3.78;;
60502;SDS011;51448;51.660;5.824;2023-02-02T05:54:52;17.65;;;4.28;;
60502;SDS011;51448;51.660;5.824;2023-02-02T05:57:19;15.20;;;3.65;;
60502;SDS011;51448;51.660;5.824;2023-02-02T05:59:47;20.55;;;3.88;;
60502;SDS011;51448;51.660;5.824;2023-02-02T06:02:14;20.30;;;4.28;;
60502;SDS011;51448;51.660;5.824;2023-02-02T06:04:42;20.77;;;3.78;;
60502;SDS011;51448;51.660;5.824;2023-02-02T06:07:09;20.75;;;4.43;;
60502;SDS011;51448;51.660;5.824;2023-02-02T06:09:38;21.90;;;4.53;;
60502;SDS011;51448;51.660;5.824;2023-02-02T06:12:05;17.63;;;4.07;;
60502;SDS011;51448;51.660;5.824;2023-02-02T06:14:34;17.65;;;4.15;;
60502;SDS011;51448;51.660;5.824;2023-02-02T06:17:02;19.48;;;4.13;;
60502;SDS011;51448;51.660;5.824;2023-02-02T06:19:29;23.65;;;3.92;;
60502;SDS011;51448;51.660;5.824;2023-02-02T06:21:57;20.40;;;3.88;;
60502;SDS011;51448;51.660;5.824;2023-02-02T06:24:24;18.23;;;4.10;;
60502;SDS011;51448;51.660;5.824;2023-02-02T06:26:52;19.50;;;4.05;;
60502;SDS011;51448;51.660;5.824;2023-02-02T06:29:19;18.63;;;4.25;;
60502;SDS011;51448;51.660;5.824;2023-02-02T06:31:47;20.52;;;4.28;;
60502;SDS011;51448;51.660;5.824;2023-02-02T06:34:14;18.40;;;3.80;;
60502;SDS011;51448;51.660;5.824;2023-02-02T06:36:42;16.67;;;3.70;;
60502;SDS011;51448;51.660;5.824;2023-02-02T06:39:09;21.42;;;4.78;;
60502;SDS011;51448;51.660;5.824;2023-02-02T06:41:37;16.80;;;3.65;;
60502;SDS011;51448;51.660;5.824;2023-02-02T06:44:05;18.35;;;4.50;;
60502;SDS011;51448;51.660;5.824;2023-02-02T06:46:32;17.27;;;4.10;;
60502;SDS011;51448;51.660;5.824;2023-02-02T06:49:00;14.77;;;3.33;;
60502;SDS011;51448;51.660;5.824;2023-02-02T06:51:27;23.10;;;4.60;;
60502;SDS011;51448;51.660;5.824;2023-02-02T06:53:55;21.23;;;4.32;;
60502;SDS011;51448;51.660;5.824;2023-02-02T06:56:25;23.65;;;4.55;;
60502;SDS011;51448;51.660;5.824;2023-02-02T06:58:53;21.05;;;3.70;;
60502;SDS011;51448;51.660;5.824;2023-02-02T07:01:20;20.58;;;3.90;;
60502;SDS011;51448;51.660;5.824;2023-02-02T07:03:48;20.13;;;3.88;;
60502;SDS011;51448;51.660;5.824;2023-02-02T07:08:50;20.88;;;4.25;;
60502;SDS011;51448;51.660;5.824;2023-02-02T07:11:30;18.33;;;3.58;;
60502;SDS011;51448;51.660;5.824;2023-02-02T07:14:03;22.08;;;4.30;;
60502;SDS011;51448;51.660;5.824;2023-02-02T07:16:31;17.70;;;3.80;;
60502;SDS011;51448;51.660;5.824;2023-02-02T07:18:59;19.25;;;4.10;;
60502;SDS011;51448;51.660;5.824;2023-02-02T07:21:26;22.58;;;4.43;;
60502;SDS011;51448;51.660;5.824;2023-02-02T07:23:56;20.63;;;4.30;;
60502;SDS011;51448;51.660;5.824;2023-02-02T07:26:23;20.08;;;4.05;;
60502;SDS011;51448;51.660;5.824;2023-02-02T07:28:52;19.83;;;4.38;;
60502;SDS011;51448;51.660;5.824;2023-02-02T07:31:20;17.40;;;4.10;;
60502;SDS011;51448;51.660;5.824;2023-02-02T07:36:20;20.40;;;4.03;;
60502;SDS011;51448;51.660;5.824;2023-02-02T07:38:51;18.15;;;4.75;;
60502;SDS011;51448;51.660;5.824;2023-02-02T07:41:20;18.38;;;3.90;;
60502;SDS011;51448;51.660;5.824;2023-02-02T07:43:48;18.55;;;4.32;;
60502;SDS011;51448;51.660;5.824;2023-02-02T07:46:17;22.08;;;4.53;;
60502;SDS011;51448;51.660;5.824;2023-02-02T07:48:46;18.73;;;4.43;;
60502;SDS011;51448;51.660;5.824;2023-02-02T07:51:15;21.25;;;4.30;;
60502;SDS011;51448;51.660;5.824;2023-02-02T07:53:44;18.27;;;4.50;;
60502;SDS011;51448;51.660;5.824;2023-02-02T07:56:16;19.10;;;4.40;;
60502;SDS011;51448;51.660;5.824;2023-02-02T07:58:46;21.10;;;4.13;;
60502;SDS011;51448;51.660;5.824;2023-02-02T08:01:14;20.23;;;4.82;;
60502;SDS011;51448;51.660;5.824;2023-02-02T08:03:43;18.52;;;4.03;;
60502;SDS011;51448;51.660;5.824;2023-02-02T08:06:12;17.08;;;4.47;;
60502;SDS011;51448;51.660;5.824;2023-02-02T08:08:45;15.75;;;4.18;;
60502;SDS011;51448;51.660;5.824;2023-02-02T08:11:14;16.38;;;4.15;;
60502;SDS011;51448;51.660;5.824;2023-02-02T08:13:47;17.92;;;4.38;;
60502;SDS011;51448;51.660;5.824;2023-02-02T08:18:45;20.75;;;4.65;;
60502;SDS011;51448;51.660;5.824;2023-02-02T08:21:13;21.50;;;4.70;;
60502;SDS011;51448;51.660;5.824;2023-02-02T08:23:41;19.90;;;3.85;;
60502;SDS011;51448;51.660;5.824;2023-02-02T08:26:17;16.75;;;3.65;;
60502;SDS011;51448;51.660;5.824;2023-02-02T08:28:56;20.80;;;5.40;;
60502;SDS011;51448;51.660;5.824;2023-02-02T08:31:35;19.02;;;4.20;;
60502;SDS011;51448;51.660;5.824;2023-02-02T08:34:07;16.45;;;3.95;;
60502;SDS011;51448;51.660;5.824;2023-02-02T08:36:36;16.92;;;4.22;;
60502;SDS011;51448;51.660;5.824;2023-02-02T08:39:05;20.25;;;4.88;;
60502;SDS011;51448;51.660;5.824;2023-02-02T08:41:37;18.45;;;4.07;;
60502;SDS011;51448;51.660;5.824;2023-02-02T08:44:06;18.15;;;3.72;;
60502;SDS011;51448;51.660;5.824;2023-02-02T08:46:37;18.98;;;4.28;;
60502;SDS011;51448;51.660;5.824;2023-02-02T08:49:05;21.40;;;4.65;;
60502;SDS011;51448;51.660;5.824;2023-02-02T08:51:36;25.33;;;5.25;;
60502;SDS011;51448;51.660;5.824;2023-02-02T08:54:04;16.58;;;4.25;;
60502;SDS011;51448;51.660;5.824;2023-02-02T08:56:31;16.23;;;3.95;;
60502;SDS011;51448;51.660;5.824;2023-02-02T08:58:59;17.08;;;3.67;;
60502;SDS011;51448;51.660;5.824;2023-02-02T09:01:29;18.23;;;4.30;;
60502;SDS011;51448;51.660;5.824;2023-02-02T09:04:00;14.23;;;3.45;;
60502;SDS011;51448;51.660;5.824;2023-02-02T09:06:42;18.27;;;4.13;;
60502;SDS011;51448;51.660;5.824;2023-02-02T09:09:12;19.92;;;4.05;;
60502;SDS011;51448;51.660;5.824;2023-02-02T09:11:42;16.95;;;3.45;;
60502;SDS011;51448;51.660;5.824;2023-02-02T09:14:10;22.55;;;4.28;;
60502;SDS011;51448;51.660;5.824;2023-02-02T09:16:40;20.48;;;4.38;;
60502;SDS011;51448;51.660;5.824;2023-02-02T09:19:08;17.67;;;3.95;;
60502;SDS011;51448;51.660;5.824;2023-02-02T09:21:37;18.35;;;4.05;;
60502;SDS011;51448;51.660;5.824;2023-02-02T09:24:10;22.25;;;3.97;;
60502;SDS011;51448;51.660;5.824;2023-02-02T09:26:40;17.50;;;4.18;;
60502;SDS011;51448;51.660;5.824;2023-02-02T09:29:11;18.40;;;3.90;;
60502;SDS011;51448;51.660;5.824;2023-02-02T09:31:41;17.00;;;3.30;;
60502;SDS011;51448;51.660;5.824;2023-02-02T09:34:10;17.52;;;3.78;;
60502;SDS011;51448;51.660;5.824;2023-02-02T09:36:41;15.85;;;3.67;;
60502;SDS011;51448;51.660;5.824;2023-02-02T09:39:10;17.00;;;4.13;;
60502;SDS011;51448;51.660;5.824;2023-02-02T09:44:13;16.90;;;3.95;;
60502;SDS011;51448;51.660;5.824;2023-02-02T09:47:34;15.85;;;3.60;;
60502;SDS011;51448;51.660;5.824;2023-02-02T09:56:38;21.00;;;4.80;;
60502;SDS011;51448;51.660;5.824;2023-02-02T09:59:22;16.08;;;3.67;;
60502;SDS011;51448;51.660;5.824;2023-02-02T10:02:02;16.60;;;3.70;;
60502;SDS011;51448;51.660;5.824;2023-02-02T10:04:43;15.35;;;4.32;;
60502;SDS011;51448;51.660;5.824;2023-02-02T10:07:19;16.88;;;3.85;;
60502;SDS011;51448;51.660;5.824;2023-02-02T10:09:58;17.75;;;3.85;;
60502;SDS011;51448;51.660;5.824;2023-02-02T10:12:45;16.98;;;3.75;;
60502;SDS011;51448;51.660;5.824;2023-02-02T10:18:32;18.63;;;3.83;;
60502;SDS011;51448;51.660;5.824;2023-02-02T10:21:12;18.15;;;3.53;;
60502;SDS011;51448;51.660;5.824;2023-02-02T10:24:00;18.40;;;3.92;;
60502;SDS011;51448;51.660;5.824;2023-02-02T10:34:40;15.75;;;4.18;;
60502;SDS011;51448;51.660;5.824;2023-02-02T10:43:26;14.95;;;3.25;;
60502;SDS011;51448;51.660;5.824;2023-02-02T10:46:27;17.80;;;3.78;;
60502;SDS011;51448;51.660;5.824;2023-02-02T10:52:03;16.63;;;3.63;;
60502;SDS011;51448;51.660;5.824;2023-02-02T10:54:53;19.88;;;4.28;;
60502;SDS011;51448;51.660;5.824;2023-02-02T11:03:14;15.32;;;3.15;;
60502;SDS011;51448;51.660;5.824;2023-02-02T11:05:45;17.08;;;3.45;;
60502;SDS011;51448;51.660;5.824;2023-02-02T11:08:33;16.27;;;3.40;;
60502;SDS011;51448;51.660;5.824;2023-02-02T11:14:01;13.88;;;3.42;;
60502;SDS011;51448;51.660;5.824;2023-02-02T11:16:42;15.27;;;3.45;;
60502;SDS011;51448;51.660;5.824;2023-02-02T11:21:52;22.50;;;3.92;;
60502;SDS011;51448;51.660;5.824;2023-02-02T11:24:29;22.25;;;3.53;;
60502;SDS011;51448;51.660;5.824;2023-02-02T11:27:12;15.13;;;3.90;;
60502;SDS011;51448;51.660;5.824;2023-02-02T11:29:47;16.08;;;3.45;;
60502;SDS011;51448;51.660;5.824;2023-02-02T11:32:22;18.23;;;4.22;;
60502;SDS011;51448;51.660;5.824;2023-02-02T11:37:31;18.00;;;3.90;;
60502;SDS011;51448;51.660;5.824;2023-02-02T11:42:55;15.48;;;4.03;;
60502;SDS011;51448;51.660;5.824;2023-02-02T11:48:01;17.13;;;3.95;;
60502;SDS011;51448;51.660;5.824;2023-02-02T11:50:43;14.80;;;3.40;;
60502;SDS011;51448;51.660;5.824;2023-02-02T11:56:04;18.85;;;3.92;;
60502;SDS011;51448;51.660;5.824;2023-02-02T11:58:47;17.73;;;3.97;;
60502;SDS011;51448;51.660;5.824;2023-02-02T12:01:25;14.88;;;3.80;;
60502;SDS011;51448;51.660;5.824;2023-02-02T12:03:57;15.48;;;3.20;;
60502;SDS011;51448;51.660;5.824;2023-02-02T12:08:59;16.65;;;3.50;;
60502;SDS011;51448;51.660;5.824;2023-02-02T12:11:39;14.55;;;3.75;;
60502;SDS011;51448;51.660;5.824;2023-02-02T12:17:45;16.45;;;3.40;;
60502;SDS011;51448;51.660;5.824;2023-02-02T12:21:01;14.48;;;3.83;;
60502;SDS011;51448;51.660;5.824;2023-02-02T12:23:53;19.92;;;3.58;;
60502;SDS011;51448;51.660;5.824;2023-02-02T12:30:22;10.73;;;3.05;;
60502;SDS011;51448;51.660;5.824;2023-02-02T12:33:24;14.82;;;3.42;;
60502;SDS011;51448;51.660;5.824;2023-02-02T12:36:20;17.65;;;3.58;;
60502;SDS011;51448;51.660;5.824;2023-02-02T12:51:01;15.77;;;3.25;;
60502;SDS011;51448;51.660;5.824;2023-02-02T12:57:41;15.38;;;3.58;;
60502;SDS011;51448;51.660;5.824;2023-02-02T13:00:26;13.67;;;3.13;;
60502;SDS011;51448;51.660;5.824;2023-02-02T13:10:05;15.38;;;3.33;;
60502;SDS011;51448;51.660;5.824;2023-02-02T13:12:39;14.48;;;3.28;;
60502;SDS011;51448;51.660;5.824;2023-02-02T13:15:16;14.45;;;2.85;;
60502;SDS011;51448;51.660;5.824;2023-02-02T13:17:52;19.42;;;2.97;;
60502;SDS011;51448;51.660;5.824;2023-02-02T13:20:37;12.73;;;2.55;;
60502;SDS011;51448;51.660;5.824;2023-02-02T13:23:12;15.60;;;3.15;;
60502;SDS011;51448;51.660;5.824;2023-02-02T13:25:51;13.55;;;2.60;;
60502;SDS011;51448;51.660;5.824;2023-02-02T13:28:35;15.90;;;3.30;;
60502;SDS011;51448;51.660;5.824;2023-02-02T13:31:14;12.23;;;2.83;;
60502;SDS011;51448;51.660;5.824;2023-02-02T13:34:01;16.98;;;2.85;;
60502;SDS011;51448;51.660;5.824;2023-02-02T13:36:45;14.98;;;3.15;;
60502;SDS011;51448;51.660;5.824;2023-02-02T13:39:31;14.82;;;3.30;;
60502;SDS011;51448;51.660;5.824;2023-02-02T13:42:14;12.75;;;2.70;;
60502;SDS011;51448;51.660;5.824;2023-02-02T13:45:15;15.13;;;3.08;;
60502;SDS011;51448;51.660;5.824;2023-02-02T13:51:18;14.23;;;3.33;;
60502;SDS011;51448;51.660;5.824;2023-02-02T14:00:18;18.65;;;3.53;;
60502;SDS011;51448;51.660;5.824;2023-02-02T14:02:53;15.63;;;3.28;;
60502;SDS011;51448;51.660;5.824;2023-02-02T14:05:28;13.57;;;3.25;;
60502;SDS011;51448;51.660;5.824;2023-02-02T14:08:14;12.98;;;3.38;;
60502;SDS011;51448;51.660;5.824;2023-02-02T14:13:20;16.83;;;3.75;;
60502;SDS011;51448;51.660;5.824;2023-02-02T14:16:20;18.48;;;4.70;;
60502;SDS011;51448;51.660;5.824;2023-02-02T14:19:13;20.23;;;4.28;;
60502;SDS011;51448;51.660;5.824;2023-02-02T14:24:41;17.38;;;4.30;;
60502;SDS011;51448;51.660;5.824;2023-02-02T14:34:54;18.77;;;4.43;;
60502;SDS011;51448;51.660;5.824;2023-02-02T14:43:22;19.85;;;4.40;;
60502;SDS011;51448;51.660;5.824;2023-02-02T14:51:26;20.50;;;4.03;;
60502;SDS011;51448;51.660;5.824;2023-02-02T14:54:06;13.05;;;4.10;;
60502;SDS011;51448;51.660;5.824;2023-02-02T14:57:03;17.65;;;4.38;;
60502;SDS011;51448;51.660;5.824;2023-02-02T14:59:48;17.85;;;4.00;;
60502;SDS011;51448;51.660;5.824;2023-02-02T15:02:28;15.70;;;4.13;;
60502;SDS011;51448;51.660;5.824;2023-02-02T15:05:32;16.05;;;4.90;;
60502;SDS011;51448;51.660;5.824;2023-02-02T15:08:32;14.88;;;4.57;;
60502;SDS011;51448;51.660;5.824;2023-02-02T15:13:21;14.25;;;4.50;;
60502;SDS011;51448;51.660;5.824;2023-02-02T15:16:02;17.23;;;4.78;;
60502;SDS011;51448;51.660;5.824;2023-02-02T15:18:45;17.52;;;4.47;;
60502;SDS011;51448;51.660;5.824;2023-02-02T15:21:43;13.07;;;3.85;;
60502;SDS011;51448;51.660;5.824;2023-02-02T15:24:17;11.88;;;3.78;;
60502;SDS011;51448;51.660;5.824;2023-02-02T15:26:51;14.27;;;3.88;;
60502;SDS011;51448;51.660;5.824;2023-02-02T15:29:29;11.10;;;3.80;;
60502;SDS011;51448;51.660;5.824;2023-02-02T15:32:12;13.50;;;4.03;;
60502;SDS011;51448;51.660;5.824;2023-02-02T15:34:50;11.85;;;4.00;;
60502;SDS011;51448;51.660;5.824;2023-02-02T15:37:31;15.77;;;4.85;;
60502;SDS011;51448;51.660;5.824;2023-02-02T15:40:12;11.20;;;4.07;;
60502;SDS011;51448;51.660;5.824;2023-02-02T15:42:48;12.75;;;4.28;;
60502;SDS011;51448;51.660;5.824;2023-02-02T15:45:37;12.55;;;5.00;;
60502;SDS011;51448;51.660;5.824;2023-02-02T15:48:19;12.77;;;4.15;;
60502;SDS011;51448;51.660;5.824;2023-02-02T15:50:50;12.68;;;4.60;;
60502;SDS011;51448;51.660;5.824;2023-02-02T15:53:24;15.13;;;4.88;;
60502;SDS011;51448;51.660;5.824;2023-02-02T15:55:59;9.35;;;4.03;;
60502;SDS011;51448;51.660;5.824;2023-02-02T15:58:54;11.13;;;4.28;;
60502;SDS011;51448;51.660;5.824;2023-02-02T16:01:25;12.07;;;4.53;;
60502;SDS011;51448;51.660;5.824;2023-02-02T16:04:15;10.80;;;4.95;;
60502;SDS011;51448;51.660;5.824;2023-02-02T16:06:52;11.13;;;4.95;;
60502;SDS011;51448;51.660;5.824;2023-02-02T16:09:22;11.13;;;5.20;;
60502;SDS011;51448;51.660;5.824;2023-02-02T16:11:54;13.75;;;5.55;;
60502;SDS011;51448;51.660;5.824;2023-02-02T16:14:22;14.43;;;5.97;;
60502;SDS011;51448;51.660;5.824;2023-02-02T16:16:49;12.55;;;5.90;;
60502;SDS011;51448;51.660;5.824;2023-02-02T16:19:19;13.43;;;5.88;;
60502;SDS011;51448;51.660;5.824;2023-02-02T16:21:55;12.02;;;5.75;;
60502;SDS011;51448;51.660;5.824;2023-02-02T16:24:30;13.73;;;5.65;;
60502;SDS011;51448;51.660;5.824;2023-02-02T16:27:03;12.57;;;6.45;;
60502;SDS011;51448;51.660;5.824;2023-02-02T16:29:39;15.25;;;6.47;;
60502;SDS011;51448;51.660;5.824;2023-02-02T16:32:30;11.77;;;7.00;;
60502;SDS011;51448;51.660;5.824;2023-02-02T16:35:05;11.02;;;6.18;;
60502;SDS011;51448;51.660;5.824;2023-02-02T16:38:21;13.95;;;6.32;;
60502;SDS011;51448;51.660;5.824;2023-02-02T16:41:07;10.95;;;6.50;;
60502;SDS011;51448;51.660;5.824;2023-02-02T16:43:51;13.18;;;7.28;;
60502;SDS011;51448;51.660;5.824;2023-02-02T16:46:38;11.20;;;6.80;;
60502;SDS011;51448;51.660;5.824;2023-02-02T16:49:16;16.08;;;6.40;;
60502;SDS011;51448;51.660;5.824;2023-02-02T16:54:40;11.88;;;6.95;;
60502;SDS011;51448;51.660;5.824;2023-02-02T16:57:18;18.08;;;8.10;;
60502;SDS011;51448;51.660;5.824;2023-02-02T16:59:53;15.77;;;8.48;;
60502;SDS011;51448;51.660;5.824;2023-02-02T17:02:39;14.85;;;8.18;;
60502;SDS011;51448;51.660;5.824;2023-02-02T17:05:24;17.58;;;9.40;;
60502;SDS011;51448;51.660;5.824;2023-02-02T17:07:59;19.77;;;8.75;;
60502;SDS011;51448;51.660;5.824;2023-02-02T17:10:38;16.35;;;9.13;;
60502;SDS011;51448;51.660;5.824;2023-02-02T17:15:58;18.50;;;8.98;;
60502;SDS011;51448;51.660;5.824;2023-02-02T17:18:26;19.02;;;9.65;;
60502;SDS011;51448;51.660;5.824;2023-02-02T17:20:55;20.75;;;9.63;;
60502;SDS011;51448;51.660;5.824;2023-02-02T17:23:25;20.85;;;9.95;;
60502;SDS011;51448;51.660;5.824;2023-02-02T17:25:56;22.65;;;9.13;;
60502;SDS011;51448;51.660;5.824;2023-02-02T17:28:25;20.80;;;8.85;;
60502;SDS011;51448;51.660;5.824;2023-02-02T17:30:56;22.13;;;8.50;;
60502;SDS011;51448;51.660;5.824;2023-02-02T17:33:28;23.55;;;8.23;;
60502;SDS011;51448;51.660;5.824;2023-02-02T17:36:01;20.70;;;6.78;;
60502;SDS011;51448;51.660;5.824;2023-02-02T17:38:29;18.67;;;7.68;;
60502;SDS011;51448;51.660;5.824;2023-02-02T17:41:01;18.52;;;6.70;;
60502;SDS011;51448;51.660;5.824;2023-02-02T17:43:29;24.00;;;7.43;;
60502;SDS011;51448;51.660;5.824;2023-02-02T17:45:59;19.50;;;6.93;;
60502;SDS011;51448;51.660;5.824;2023-02-02T17:48:28;17.40;;;7.38;;
60502;SDS011;51448;51.660;5.824;2023-02-02T17:50:55;20.90;;;7.03;;